Overview Statistics Trail Chart Weather Telemetry Raw packets
 

This is the latest recevied weather packets stored in our database for station/object PY2WOA-13. If no packets are shown the sender has not sent any weather packets the latest 10 day(s).

<< 12 13 14 15 16 17 18 >>
Time Temp. Humidity Pressure Rain* Wind** Luminosity Snow
1788053704 27.22° C 68% 1010.1 hPa - - - -
1788051904 27.78° C 67% 1009.9 hPa - - - -
1788050104 27.78° C 64% 1009.8 hPa - - - -
1788048304 27.78° C 63% 1009.6 hPa - - - -
1788046503 27.78° C 64% 1009.2 hPa - - - -
1788044703 28.33° C 63% 1008.6 hPa - - - -
1788042904 29.44° C 62% 1007.9 hPa - - - -
1788041104 30° C 61% 1007.3 hPa - - - -
1788039304 30° C 60% 1006.8 hPa - - - -
1788037504 31.11° C 55% 1006.1 hPa - - - -
1788035704 32.78° C 51% 1006.1 hPa - - - -
1788033903 32.22° C 54% 1006 hPa - - - -
1788032104 32.78° C 53% 1005.7 hPa - - - -
1788030304 32.22° C 55% 1005.5 hPa - - - -
1788028504 30.56° C 63% 1006 hPa - - - -
1788026704 36.67° C 34% 1004.9 hPa - - - -
1788024904 39.44° C 31% 1004.8 hPa - - - -
1788023104 38.89° C 31% 1005.6 hPa - - - -
1788021304 38.89° C 31% 1006 hPa - - - -
1788019503 38.33° C 32% 1006.4 hPa - - - -
1788017703 38.33° C 34% 1006.9 hPa - - - -
1788015909 37.22° C 36% 1007.7 hPa - - - -
1788014104 35.56° C 39% 1008.6 hPa - - - -
1788012304 32.78° C 47% 1009.5 hPa - - - -
1788010504 31.67° C 54% 1010 hPa - - - -

* Rain since midnight (hover to see other rain measurements)
** Current wind speed in m/s (hover to see current wind gust speed)